sensor_id;sensor_type;location;lat;lon;timestamp;P1;durP1;ratioP1;P2;durP2;ratioP2
11228;SDS011;5671;47.936;8.716;2023-05-16T00:01:08;3.60;;;1.27;;
11228;SDS011;5671;47.936;8.716;2023-05-16T00:03:36;2.57;;;1.33;;
11228;SDS011;5671;47.936;8.716;2023-05-16T00:06:03;3.00;;;1.43;;
11228;SDS011;5671;47.936;8.716;2023-05-16T00:08:31;1.33;;;1.27;;
11228;SDS011;5671;47.936;8.716;2023-05-16T00:10:58;3.87;;;1.53;;
11228;SDS011;5671;47.936;8.716;2023-05-16T00:13:25;4.43;;;2.03;;
11228;SDS011;5671;47.936;8.716;2023-05-16T00:15:52;1.60;;;1.40;;
11228;SDS011;5671;47.936;8.716;2023-05-16T00:18:20;4.00;;;1.73;;
11228;SDS011;5671;47.936;8.716;2023-05-16T00:20:47;1.60;;;1.50;;
11228;SDS011;5671;47.936;8.716;2023-05-16T00:23:14;2.87;;;1.77;;
11228;SDS011;5671;47.936;8.716;2023-05-16T00:25:42;3.33;;;1.40;;
11228;SDS011;5671;47.936;8.716;2023-05-16T00:28:11;3.40;;;1.50;;
11228;SDS011;5671;47.936;8.716;2023-05-16T00:30:37;2.40;;;2.20;;
11228;SDS011;5671;47.936;8.716;2023-05-16T00:33:04;1.70;;;1.60;;
11228;SDS011;5671;47.936;8.716;2023-05-16T00:35:31;2.23;;;1.33;;
11228;SDS011;5671;47.936;8.716;2023-05-16T00:37:58;1.77;;;1.47;;
11228;SDS011;5671;47.936;8.716;2023-05-16T00:40:25;2.10;;;1.57;;
11228;SDS011;5671;47.936;8.716;2023-05-16T00:42:53;1.77;;;1.60;;
11228;SDS011;5671;47.936;8.716;2023-05-16T00:45:20;4.17;;;1.53;;
11228;SDS011;5671;47.936;8.716;2023-05-16T00:47:47;1.83;;;1.47;;
11228;SDS011;5671;47.936;8.716;2023-05-16T00:50:13;1.40;;;1.40;;
11228;SDS011;5671;47.936;8.716;2023-05-16T00:52:41;1.50;;;1.40;;
11228;SDS011;5671;47.936;8.716;2023-05-16T00:55:08;7.67;;;1.90;;
11228;SDS011;5671;47.936;8.716;2023-05-16T00:57:35;1.70;;;1.60;;
11228;SDS011;5671;47.936;8.716;2023-05-16T01:00:05;10.87;;;1.90;;
11228;SDS011;5671;47.936;8.716;2023-05-16T01:02:33;3.67;;;1.70;;
11228;SDS011;5671;47.936;8.716;2023-05-16T01:05:00;1.83;;;1.37;;
11228;SDS011;5671;47.936;8.716;2023-05-16T01:07:29;5.20;;;1.63;;
11228;SDS011;5671;47.936;8.716;2023-05-16T01:09:56;2.20;;;1.50;;
11228;SDS011;5671;47.936;8.716;2023-05-16T01:12:26;1.30;;;1.20;;
11228;SDS011;5671;47.936;8.716;2023-05-16T01:15:01;4.80;;;1.80;;
11228;SDS011;5671;47.936;8.716;2023-05-16T01:17:35;3.20;;;1.97;;
11228;SDS011;5671;47.936;8.716;2023-05-16T01:20:12;1.70;;;1.60;;
11228;SDS011;5671;47.936;8.716;2023-05-16T01:22:51;2.00;;;1.80;;
11228;SDS011;5671;47.936;8.716;2023-05-16T01:25:30;3.47;;;1.87;;
11228;SDS011;5671;47.936;8.716;2023-05-16T01:28:04;1.87;;;1.77;;
11228;SDS011;5671;47.936;8.716;2023-05-16T01:30:34;3.90;;;1.93;;
11228;SDS011;5671;47.936;8.716;2023-05-16T01:33:02;3.40;;;2.27;;
11228;SDS011;5671;47.936;8.716;2023-05-16T01:35:29;4.67;;;1.90;;
11228;SDS011;5671;47.936;8.716;2023-05-16T01:37:57;2.10;;;1.57;;
11228;SDS011;5671;47.936;8.716;2023-05-16T01:40:32;1.90;;;1.80;;
11228;SDS011;5671;47.936;8.716;2023-05-16T01:43:07;1.80;;;1.70;;
11228;SDS011;5671;47.936;8.716;2023-05-16T01:45:38;2.57;;;1.63;;
11228;SDS011;5671;47.936;8.716;2023-05-16T01:48:16;1.70;;;1.60;;
11228;SDS011;5671;47.936;8.716;2023-05-16T01:50:49;1.60;;;1.50;;
11228;SDS011;5671;47.936;8.716;2023-05-16T01:53:22;3.10;;;1.80;;
11228;SDS011;5671;47.936;8.716;2023-05-16T01:55:55;1.67;;;1.43;;
11228;SDS011;5671;47.936;8.716;2023-05-16T01:58:25;1.93;;;1.60;;
11228;SDS011;5671;47.936;8.716;2023-05-16T02:00:58;2.40;;;1.80;;
11228;SDS011;5671;47.936;8.716;2023-05-16T02:03:26;2.40;;;1.60;;
11228;SDS011;5671;47.936;8.716;2023-05-16T02:05:53;7.37;;;1.73;;
11228;SDS011;5671;47.936;8.716;2023-05-16T02:08:20;3.50;;;1.70;;
11228;SDS011;5671;47.936;8.716;2023-05-16T02:10:50;2.90;;;1.60;;
11228;SDS011;5671;47.936;8.716;2023-05-16T02:13:17;3.00;;;2.00;;
11228;SDS011;5671;47.936;8.716;2023-05-16T02:15:45;1.70;;;1.60;;
11228;SDS011;5671;47.936;8.716;2023-05-16T02:18:12;3.80;;;1.87;;
11228;SDS011;5671;47.936;8.716;2023-05-16T02:20:39;6.77;;;2.33;;
11228;SDS011;5671;47.936;8.716;2023-05-16T02:23:06;5.73;;;2.00;;
11228;SDS011;5671;47.936;8.716;2023-05-16T02:25:32;1.77;;;1.67;;
11228;SDS011;5671;47.936;8.716;2023-05-16T02:27:59;1.70;;;1.60;;
11228;SDS011;5671;47.936;8.716;2023-05-16T02:30:26;3.23;;;1.70;;
11228;SDS011;5671;47.936;8.716;2023-05-16T02:32:54;1.90;;;1.73;;
11228;SDS011;5671;47.936;8.716;2023-05-16T02:35:21;1.90;;;1.77;;
11228;SDS011;5671;47.936;8.716;2023-05-16T02:37:48;2.63;;;2.00;;
11228;SDS011;5671;47.936;8.716;2023-05-16T02:40:15;2.00;;;1.90;;
11228;SDS011;5671;47.936;8.716;2023-05-16T02:42:42;5.83;;;1.90;;
11228;SDS011;5671;47.936;8.716;2023-05-16T02:45:09;2.57;;;1.80;;
11228;SDS011;5671;47.936;8.716;2023-05-16T02:47:36;2.60;;;1.87;;
11228;SDS011;5671;47.936;8.716;2023-05-16T02:50:05;3.30;;;1.67;;
11228;SDS011;5671;47.936;8.716;2023-05-16T02:52:32;1.70;;;1.60;;
11228;SDS011;5671;47.936;8.716;2023-05-16T02:54:59;1.80;;;1.70;;
11228;SDS011;5671;47.936;8.716;2023-05-16T02:57:25;3.90;;;1.87;;
11228;SDS011;5671;47.936;8.716;2023-05-16T02:59:52;4.63;;;1.93;;
11228;SDS011;5671;47.936;8.716;2023-05-16T03:02:19;3.90;;;1.73;;
11228;SDS011;5671;47.936;8.716;2023-05-16T03:04:46;1.70;;;1.60;;
11228;SDS011;5671;47.936;8.716;2023-05-16T03:07:14;1.80;;;1.70;;
11228;SDS011;5671;47.936;8.716;2023-05-16T03:09:41;2.60;;;1.80;;
11228;SDS011;5671;47.936;8.716;2023-05-16T03:12:08;2.30;;;1.90;;
11228;SDS011;5671;47.936;8.716;2023-05-16T03:14:35;3.23;;;1.87;;
11228;SDS011;5671;47.936;8.716;2023-05-16T03:17:02;2.73;;;1.60;;
11228;SDS011;5671;47.936;8.716;2023-05-16T03:19:29;4.73;;;2.00;;
11228;SDS011;5671;47.936;8.716;2023-05-16T03:21:55;2.53;;;2.10;;
11228;SDS011;5671;47.936;8.716;2023-05-16T03:24:24;3.23;;;1.90;;
11228;SDS011;5671;47.936;8.716;2023-05-16T03:26:50;2.63;;;1.87;;
11228;SDS011;5671;47.936;8.716;2023-05-16T03:29:17;2.97;;;1.93;;
11228;SDS011;5671;47.936;8.716;2023-05-16T03:31:44;1.80;;;1.70;;
11228;SDS011;5671;47.936;8.716;2023-05-16T03:34:11;3.63;;;2.13;;
11228;SDS011;5671;47.936;8.716;2023-05-16T03:36:38;4.07;;;2.10;;
11228;SDS011;5671;47.936;8.716;2023-05-16T03:39:06;3.83;;;2.23;;
11228;SDS011;5671;47.936;8.716;2023-05-16T03:41:34;2.90;;;1.93;;
11228;SDS011;5671;47.936;8.716;2023-05-16T03:44:01;1.90;;;1.80;;
11228;SDS011;5671;47.936;8.716;2023-05-16T03:46:28;3.10;;;2.00;;
11228;SDS011;5671;47.936;8.716;2023-05-16T03:48:55;2.70;;;1.70;;
11228;SDS011;5671;47.936;8.716;2023-05-16T03:51:22;2.13;;;1.73;;
11228;SDS011;5671;47.936;8.716;2023-05-16T03:53:48;3.10;;;2.20;;
11228;SDS011;5671;47.936;8.716;2023-05-16T03:56:15;3.40;;;1.90;;
11228;SDS011;5671;47.936;8.716;2023-05-16T03:58:43;5.03;;;2.20;;
11228;SDS011;5671;47.936;8.716;2023-05-16T04:01:10;2.67;;;2.47;;
11228;SDS011;5671;47.936;8.716;2023-05-16T04:03:37;3.87;;;3.50;;
11228;SDS011;5671;47.936;8.716;2023-05-16T04:06:06;5.70;;;3.30;;
11228;SDS011;5671;47.936;8.716;2023-05-16T04:08:33;3.93;;;3.07;;
11228;SDS011;5671;47.936;8.716;2023-05-16T04:10:59;16.00;;;9.47;;
11228;SDS011;5671;47.936;8.716;2023-05-16T04:13:26;10.07;;;7.27;;
11228;SDS011;5671;47.936;8.716;2023-05-16T04:15:54;7.57;;;6.83;;
11228;SDS011;5671;47.936;8.716;2023-05-16T04:18:21;11.80;;;6.67;;
11228;SDS011;5671;47.936;8.716;2023-05-16T04:20:48;7.77;;;5.57;;
11228;SDS011;5671;47.936;8.716;2023-05-16T04:23:15;9.63;;;6.50;;
11228;SDS011;5671;47.936;8.716;2023-05-16T04:25:44;7.93;;;7.20;;
11228;SDS011;5671;47.936;8.716;2023-05-16T04:28:11;9.60;;;8.57;;
11228;SDS011;5671;47.936;8.716;2023-05-16T04:30:38;11.30;;;8.47;;
11228;SDS011;5671;47.936;8.716;2023-05-16T04:33:06;13.03;;;8.27;;
11228;SDS011;5671;47.936;8.716;2023-05-16T04:35:33;13.17;;;11.87;;
11228;SDS011;5671;47.936;8.716;2023-05-16T04:37:59;15.97;;;14.47;;
11228;SDS011;5671;47.936;8.716;2023-05-16T04:40:26;17.20;;;14.43;;
11228;SDS011;5671;47.936;8.716;2023-05-16T04:42:53;18.23;;;16.30;;
11228;SDS011;5671;47.936;8.716;2023-05-16T04:45:20;21.70;;;19.17;;
11228;SDS011;5671;47.936;8.716;2023-05-16T04:47:47;29.97;;;19.20;;
11228;SDS011;5671;47.936;8.716;2023-05-16T04:50:15;21.80;;;19.47;;
11228;SDS011;5671;47.936;8.716;2023-05-16T04:52:42;25.53;;;21.33;;
11228;SDS011;5671;47.936;8.716;2023-05-16T04:55:09;25.97;;;21.53;;
11228;SDS011;5671;47.936;8.716;2023-05-16T04:57:36;26.37;;;23.67;;
11228;SDS011;5671;47.936;8.716;2023-05-16T05:00:03;34.53;;;25.77;;
11228;SDS011;5671;47.936;8.716;2023-05-16T05:02:34;32.83;;;24.33;;
11228;SDS011;5671;47.936;8.716;2023-05-16T05:05:01;29.33;;;26.10;;
11228;SDS011;5671;47.936;8.716;2023-05-16T05:07:29;26.77;;;23.87;;
11228;SDS011;5671;47.936;8.716;2023-05-16T05:09:58;31.53;;;26.13;;
11228;SDS011;5671;47.936;8.716;2023-05-16T05:12:25;30.37;;;25.73;;
11228;SDS011;5671;47.936;8.716;2023-05-16T05:14:52;29.57;;;26.37;;
11228;SDS011;5671;47.936;8.716;2023-05-16T05:17:19;34.43;;;28.00;;
11228;SDS011;5671;47.936;8.716;2023-05-16T05:19:46;32.47;;;27.80;;
11228;SDS011;5671;47.936;8.716;2023-05-16T05:22:13;39.03;;;28.00;;
11228;SDS011;5671;47.936;8.716;2023-05-16T05:24:41;31.73;;;27.53;;
11228;SDS011;5671;47.936;8.716;2023-05-16T05:27:08;36.47;;;27.77;;
11228;SDS011;5671;47.936;8.716;2023-05-16T05:29:35;36.13;;;27.17;;
11228;SDS011;5671;47.936;8.716;2023-05-16T05:32:02;35.20;;;26.67;;
11228;SDS011;5671;47.936;8.716;2023-05-16T05:34:29;31.00;;;26.70;;
11228;SDS011;5671;47.936;8.716;2023-05-16T05:36:57;33.00;;;27.73;;
11228;SDS011;5671;47.936;8.716;2023-05-16T05:39:24;33.50;;;27.57;;
11228;SDS011;5671;47.936;8.716;2023-05-16T05:41:52;30.13;;;24.97;;
11228;SDS011;5671;47.936;8.716;2023-05-16T05:44:19;39.10;;;27.37;;
11228;SDS011;5671;47.936;8.716;2023-05-16T05:46:45;33.73;;;26.30;;
11228;SDS011;5671;47.936;8.716;2023-05-16T05:49:12;32.20;;;25.90;;
11228;SDS011;5671;47.936;8.716;2023-05-16T05:51:40;28.50;;;25.33;;
11228;SDS011;5671;47.936;8.716;2023-05-16T05:54:06;36.53;;;26.90;;
11228;SDS011;5671;47.936;8.716;2023-05-16T05:56:33;32.07;;;27.27;;
11228;SDS011;5671;47.936;8.716;2023-05-16T05:59:02;32.80;;;25.17;;
11228;SDS011;5671;47.936;8.716;2023-05-16T06:01:28;34.97;;;27.87;;
11228;SDS011;5671;47.936;8.716;2023-05-16T06:03:55;29.50;;;26.30;;
11228;SDS011;5671;47.936;8.716;2023-05-16T06:06:22;31.37;;;26.33;;
11228;SDS011;5671;47.936;8.716;2023-05-16T06:08:49;32.10;;;25.83;;
11228;SDS011;5671;47.936;8.716;2023-05-16T06:11:15;30.57;;;26.17;;
11228;SDS011;5671;47.936;8.716;2023-05-16T06:13:43;28.43;;;24.27;;
11228;SDS011;5671;47.936;8.716;2023-05-16T06:16:11;27.60;;;24.37;;
11228;SDS011;5671;47.936;8.716;2023-05-16T06:18:38;29.60;;;25.20;;
11228;SDS011;5671;47.936;8.716;2023-05-16T06:21:06;27.97;;;24.00;;
11228;SDS011;5671;47.936;8.716;2023-05-16T06:23:33;28.10;;;24.60;;
11228;SDS011;5671;47.936;8.716;2023-05-16T06:26:00;27.03;;;24.13;;
11228;SDS011;5671;47.936;8.716;2023-05-16T06:28:26;28.37;;;23.50;;
11228;SDS011;5671;47.936;8.716;2023-05-16T06:30:54;26.13;;;23.33;;
11228;SDS011;5671;47.936;8.716;2023-05-16T06:33:22;27.03;;;23.80;;
11228;SDS011;5671;47.936;8.716;2023-05-16T06:35:49;28.57;;;23.63;;
11228;SDS011;5671;47.936;8.716;2023-05-16T06:38:16;26.47;;;23.53;;
11228;SDS011;5671;47.936;8.716;2023-05-16T06:40:44;26.67;;;23.07;;
11228;SDS011;5671;47.936;8.716;2023-05-16T06:43:10;29.53;;;24.43;;
11228;SDS011;5671;47.936;8.716;2023-05-16T06:45:37;31.50;;;24.77;;
11228;SDS011;5671;47.936;8.716;2023-05-16T06:48:05;27.00;;;23.43;;
11228;SDS011;5671;47.936;8.716;2023-05-16T06:50:34;24.23;;;21.70;;
11228;SDS011;5671;47.936;8.716;2023-05-16T06:53:01;25.93;;;22.83;;
11228;SDS011;5671;47.936;8.716;2023-05-16T06:55:28;24.07;;;21.57;;
11228;SDS011;5671;47.936;8.716;2023-05-16T06:57:55;24.40;;;21.87;;
11228;SDS011;5671;47.936;8.716;2023-05-16T07:00:22;25.00;;;22.30;;
11228;SDS011;5671;47.936;8.716;2023-05-16T07:02:49;26.30;;;22.90;;
11228;SDS011;5671;47.936;8.716;2023-05-16T07:05:16;22.50;;;20.20;;
11228;SDS011;5671;47.936;8.716;2023-05-16T07:07:45;24.77;;;21.20;;
11228;SDS011;5671;47.936;8.716;2023-05-16T07:10:13;24.97;;;22.27;;
11228;SDS011;5671;47.936;8.716;2023-05-16T07:12:41;26.03;;;21.80;;
11228;SDS011;5671;47.936;8.716;2023-05-16T07:15:08;23.60;;;20.87;;
11228;SDS011;5671;47.936;8.716;2023-05-16T07:17:36;22.87;;;20.43;;
11228;SDS011;5671;47.936;8.716;2023-05-16T07:20:03;23.87;;;21.37;;
11228;SDS011;5671;47.936;8.716;2023-05-16T07:22:30;24.97;;;21.87;;
11228;SDS011;5671;47.936;8.716;2023-05-16T07:24:59;27.70;;;22.13;;
11228;SDS011;5671;47.936;8.716;2023-05-16T07:27:26;26.30;;;23.43;;
11228;SDS011;5671;47.936;8.716;2023-05-16T07:29:53;24.57;;;21.97;;
11228;SDS011;5671;47.936;8.716;2023-05-16T07:32:20;24.07;;;21.53;;
11228;SDS011;5671;47.936;8.716;2023-05-16T07:34:46;26.77;;;22.30;;
11228;SDS011;5671;47.936;8.716;2023-05-16T07:37:13;22.87;;;20.47;;
11228;SDS011;5671;47.936;8.716;2023-05-16T07:39:40;21.13;;;18.87;;
11228;SDS011;5671;47.936;8.716;2023-05-16T07:42:09;22.43;;;20.00;;
11228;SDS011;5671;47.936;8.716;2023-05-16T07:44:36;22.17;;;19.63;;
11228;SDS011;5671;47.936;8.716;2023-05-16T07:47:03;22.37;;;19.53;;
11228;SDS011;5671;47.936;8.716;2023-05-16T07:49:30;24.63;;;19.23;;
11228;SDS011;5671;47.936;8.716;2023-05-16T07:51:57;20.13;;;18.03;;
11228;SDS011;5671;47.936;8.716;2023-05-16T07:54:23;19.93;;;17.90;;
11228;SDS011;5671;47.936;8.716;2023-05-16T07:56:50;21.77;;;19.10;;
11228;SDS011;5671;47.936;8.716;2023-05-16T07:59:19;17.93;;;16.13;;
11228;SDS011;5671;47.936;8.716;2023-05-16T08:01:46;18.50;;;16.57;;
11228;SDS011;5671;47.936;8.716;2023-05-16T08:04:13;20.07;;;18.07;;
11228;SDS011;5671;47.936;8.716;2023-05-16T08:06:39;17.23;;;15.53;;
11228;SDS011;5671;47.936;8.716;2023-05-16T08:09:06;17.90;;;16.07;;
11228;SDS011;5671;47.936;8.716;2023-05-16T08:11:33;16.93;;;15.23;;
11228;SDS011;5671;47.936;8.716;2023-05-16T08:14:01;17.17;;;15.50;;
11228;SDS011;5671;47.936;8.716;2023-05-16T08:16:30;17.77;;;15.50;;
11228;SDS011;5671;47.936;8.716;2023-05-16T08:18:57;16.83;;;15.13;;
11228;SDS011;5671;47.936;8.716;2023-05-16T08:21:24;17.57;;;15.87;;
11228;SDS011;5671;47.936;8.716;2023-05-16T08:23:51;16.60;;;14.97;;
11228;SDS011;5671;47.936;8.716;2023-05-16T08:26:18;17.53;;;15.73;;
11228;SDS011;5671;47.936;8.716;2023-05-16T08:28:45;17.40;;;15.70;;
11228;SDS011;5671;47.936;8.716;2023-05-16T08:31:13;17.03;;;15.23;;
11228;SDS011;5671;47.936;8.716;2023-05-16T08:33:41;16.57;;;14.97;;
11228;SDS011;5671;47.936;8.716;2023-05-16T08:36:08;17.43;;;15.63;;
11228;SDS011;5671;47.936;8.716;2023-05-16T08:38:35;19.30;;;15.77;;
11228;SDS011;5671;47.936;8.716;2023-05-16T08:41:08;21.33;;;19.27;;
11228;SDS011;5671;47.936;8.716;2023-05-16T08:43:35;17.33;;;15.57;;
11228;SDS011;5671;47.936;8.716;2023-05-16T08:46:02;16.03;;;14.43;;
11228;SDS011;5671;47.936;8.716;2023-05-16T08:48:28;15.77;;;14.07;;
11228;SDS011;5671;47.936;8.716;2023-05-16T08:50:59;15.43;;;13.87;;
11228;SDS011;5671;47.936;8.716;2023-05-16T08:53:30;35.10;;;15.33;;
11228;SDS011;5671;47.936;8.716;2023-05-16T08:56:02;14.20;;;11.97;;
11228;SDS011;5671;47.936;8.716;2023-05-16T08:58:31;14.83;;;11.30;;
11228;SDS011;5671;47.936;8.716;2023-05-16T09:00:58;14.77;;;10.50;;
11228;SDS011;5671;47.936;8.716;2023-05-16T09:03:28;16.00;;;10.30;;
11228;SDS011;5671;47.936;8.716;2023-05-16T09:05:55;11.20;;;10.10;;
11228;SDS011;5671;47.936;8.716;2023-05-16T09:08:24;11.17;;;10.07;;
11228;SDS011;5671;47.936;8.716;2023-05-16T09:10:51;11.30;;;10.10;;
11228;SDS011;5671;47.936;8.716;2023-05-16T09:13:18;10.73;;;8.93;;
11228;SDS011;5671;47.936;8.716;2023-05-16T09:15:45;11.73;;;10.23;;
11228;SDS011;5671;47.936;8.716;2023-05-16T09:18:32;11.27;;;9.27;;
11228;SDS011;5671;47.936;8.716;2023-05-16T09:20:59;10.77;;;9.47;;
11228;SDS011;5671;47.936;8.716;2023-05-16T09:23:27;9.27;;;8.03;;
11228;SDS011;5671;47.936;8.716;2023-05-16T09:25:56;9.57;;;7.97;;
11228;SDS011;5671;47.936;8.716;2023-05-16T09:28:23;9.07;;;7.70;;
11228;SDS011;5671;47.936;8.716;2023-05-16T09:30:51;8.27;;;7.47;;
11228;SDS011;5671;47.936;8.716;2023-05-16T09:33:21;7.33;;;6.63;;
11228;SDS011;5671;47.936;8.716;2023-05-16T09:35:53;7.13;;;6.43;;
11228;SDS011;5671;47.936;8.716;2023-05-16T09:38:21;6.60;;;6.00;;
11228;SDS011;5671;47.936;8.716;2023-05-16T09:40:49;5.87;;;5.23;;
11228;SDS011;5671;47.936;8.716;2023-05-16T09:43:16;5.90;;;5.30;;
11228;SDS011;5671;47.936;8.716;2023-05-16T09:45:47;6.83;;;6.13;;
11228;SDS011;5671;47.936;8.716;2023-05-16T09:48:14;6.37;;;5.73;;
11228;SDS011;5671;47.936;8.716;2023-05-16T09:50:45;6.40;;;5.80;;
11228;SDS011;5671;47.936;8.716;2023-05-16T09:53:15;7.53;;;6.73;;
11228;SDS011;5671;47.936;8.716;2023-05-16T09:55:42;7.80;;;7.00;;
11228;SDS011;5671;47.936;8.716;2023-05-16T09:58:10;8.73;;;7.93;;
11228;SDS011;5671;47.936;8.716;2023-05-16T10:00:37;8.93;;;8.03;;
11228;SDS011;5671;47.936;8.716;2023-05-16T10:03:06;11.53;;;10.43;;
11228;SDS011;5671;47.936;8.716;2023-05-16T10:05:33;9.50;;;8.33;;
11228;SDS011;5671;47.936;8.716;2023-05-16T10:08:02;9.87;;;8.90;;
11228;SDS011;5671;47.936;8.716;2023-05-16T10:10:30;9.10;;;8.23;;
11228;SDS011;5671;47.936;8.716;2023-05-16T10:13:00;10.43;;;9.43;;
11228;SDS011;5671;47.936;8.716;2023-05-16T10:15:31;12.93;;;8.03;;
11228;SDS011;5671;47.936;8.716;2023-05-16T10:18:01;8.30;;;7.50;;
11228;SDS011;5671;47.936;8.716;2023-05-16T10:20:32;10.00;;;8.20;;
11228;SDS011;5671;47.936;8.716;2023-05-16T10:22:59;8.40;;;7.70;;
11228;SDS011;5671;47.936;8.716;2023-05-16T10:25:28;7.97;;;7.17;;
11228;SDS011;5671;47.936;8.716;2023-05-16T10:27:57;8.40;;;7.60;;
11228;SDS011;5671;47.936;8.716;2023-05-16T10:30:25;8.00;;;7.20;;
11228;SDS011;5671;47.936;8.716;2023-05-16T10:32:53;8.23;;;7.40;;
11228;SDS011;5671;47.936;8.716;2023-05-16T10:35:22;8.07;;;7.00;;
11228;SDS011;5671;47.936;8.716;2023-05-16T10:37:51;7.77;;;6.50;;
11228;SDS011;5671;47.936;8.716;2023-05-16T10:40:18;7.00;;;6.40;;
11228;SDS011;5671;47.936;8.716;2023-05-16T10:42:53;10.17;;;9.03;;
11228;SDS011;5671;47.936;8.716;2023-05-16T10:45:21;9.63;;;8.73;;
11228;SDS011;5671;47.936;8.716;2023-05-16T10:47:51;13.93;;;12.57;;
11228;SDS011;5671;47.936;8.716;2023-05-16T10:50:34;9.37;;;8.47;;
11228;SDS011;5671;47.936;8.716;2023-05-16T10:53:18;9.93;;;8.93;;
11228;SDS011;5671;47.936;8.716;2023-05-16T10:56:07;10.03;;;9.00;;
11228;SDS011;5671;47.936;8.716;2023-05-16T10:58:39;10.30;;;9.30;;
11228;SDS011;5671;47.936;8.716;2023-05-16T11:01:14;11.47;;;8.70;;
11228;SDS011;5671;47.936;8.716;2023-05-16T11:06:43;9.07;;;8.27;;
11228;SDS011;5671;47.936;8.716;2023-05-16T11:09:19;12.60;;;9.23;;
11228;SDS011;5671;47.936;8.716;2023-05-16T11:11:52;9.50;;;8.40;;
11228;SDS011;5671;47.936;8.716;2023-05-16T11:14:21;16.00;;;14.40;;
11228;SDS011;5671;47.936;8.716;2023-05-16T11:16:49;10.03;;;8.37;;
11228;SDS011;5671;47.936;8.716;2023-05-16T11:22:12;12.17;;;10.83;;
11228;SDS011;5671;47.936;8.716;2023-05-16T11:24:54;10.90;;;9.80;;
11228;SDS011;5671;47.936;8.716;2023-05-16T11:27:24;11.73;;;9.80;;
11228;SDS011;5671;47.936;8.716;2023-05-16T11:29:52;10.70;;;9.70;;
11228;SDS011;5671;47.936;8.716;2023-05-16T11:32:21;10.07;;;9.10;;
11228;SDS011;5671;47.936;8.716;2023-05-16T11:34:50;10.60;;;9.60;;
11228;SDS011;5671;47.936;8.716;2023-05-16T11:37:18;10.90;;;9.33;;
11228;SDS011;5671;47.936;8.716;2023-05-16T11:39:47;10.70;;;9.70;;
11228;SDS011;5671;47.936;8.716;2023-05-16T11:42:15;11.60;;;10.40;;
11228;SDS011;5671;47.936;8.716;2023-05-16T11:44:42;12.43;;;11.17;;
11228;SDS011;5671;47.936;8.716;2023-05-16T11:47:09;11.10;;;10.10;;
11228;SDS011;5671;47.936;8.716;2023-05-16T11:49:36;11.40;;;10.00;;
11228;SDS011;5671;47.936;8.716;2023-05-16T11:52:06;11.50;;;10.40;;
11228;SDS011;5671;47.936;8.716;2023-05-16T11:54:34;11.07;;;10.07;;
11228;SDS011;5671;47.936;8.716;2023-05-16T11:57:01;14.57;;;13.07;;
11228;SDS011;5671;47.936;8.716;2023-05-16T11:59:28;12.30;;;11.10;;
11228;SDS011;5671;47.936;8.716;2023-05-16T12:01:55;15.80;;;12.47;;
11228;SDS011;5671;47.936;8.716;2023-05-16T12:04:22;13.00;;;11.80;;
11228;SDS011;5671;47.936;8.716;2023-05-16T12:06:58;11.60;;;10.43;;
11228;SDS011;5671;47.936;8.716;2023-05-16T12:09:27;11.57;;;10.47;;
11228;SDS011;5671;47.936;8.716;2023-05-16T12:11:54;13.00;;;11.03;;
11228;SDS011;5671;47.936;8.716;2023-05-16T12:14:21;13.60;;;12.30;;
11228;SDS011;5671;47.936;8.716;2023-05-16T12:16:50;12.90;;;11.27;;
11228;SDS011;5671;47.936;8.716;2023-05-16T12:19:18;11.83;;;10.73;;
11228;SDS011;5671;47.936;8.716;2023-05-16T12:21:46;12.57;;;11.37;;
11228;SDS011;5671;47.936;8.716;2023-05-16T12:24:13;12.53;;;11.43;;
11228;SDS011;5671;47.936;8.716;2023-05-16T12:26:42;11.63;;;10.53;;
11228;SDS011;5671;47.936;8.716;2023-05-16T12:29:09;11.33;;;10.40;;
11228;SDS011;5671;47.936;8.716;2023-05-16T12:31:37;10.20;;;9.20;;
11228;SDS011;5671;47.936;8.716;2023-05-16T12:34:13;9.77;;;8.80;;
11228;SDS011;5671;47.936;8.716;2023-05-16T12:36:41;12.67;;;11.37;;
11228;SDS011;5671;47.936;8.716;2023-05-16T12:39:10;9.87;;;8.87;;
11228;SDS011;5671;47.936;8.716;2023-05-16T12:41:39;9.13;;;8.23;;
11228;SDS011;5671;47.936;8.716;2023-05-16T12:44:11;10.13;;;8.90;;
11228;SDS011;5671;47.936;8.716;2023-05-16T12:46:41;8.13;;;7.33;;
11228;SDS011;5671;47.936;8.716;2023-05-16T12:49:08;12.33;;;7.87;;
11228;SDS011;5671;47.936;8.716;2023-05-16T12:51:35;7.53;;;6.80;;
11228;SDS011;5671;47.936;8.716;2023-05-16T12:54:08;7.70;;;7.00;;
11228;SDS011;5671;47.936;8.716;2023-05-16T12:56:37;8.27;;;7.50;;
11228;SDS011;5671;47.936;8.716;2023-05-16T12:59:04;7.80;;;7.10;;
11228;SDS011;5671;47.936;8.716;2023-05-16T13:01:32;6.17;;;5.60;;
11228;SDS011;5671;47.936;8.716;2023-05-16T13:03:59;10.00;;;7.80;;
11228;SDS011;5671;47.936;8.716;2023-05-16T13:06:27;7.57;;;6.77;;
11228;SDS011;5671;47.936;8.716;2023-05-16T13:08:53;7.03;;;6.40;;
11228;SDS011;5671;47.936;8.716;2023-05-16T13:11:21;7.50;;;6.80;;
11228;SDS011;5671;47.936;8.716;2023-05-16T13:13:48;7.70;;;6.57;;
11228;SDS011;5671;47.936;8.716;2023-05-16T13:16:15;6.20;;;5.60;;
11228;SDS011;5671;47.936;8.716;2023-05-16T13:18:43;6.70;;;6.00;;
11228;SDS011;5671;47.936;8.716;2023-05-16T13:21:10;6.20;;;5.60;;
11228;SDS011;5671;47.936;8.716;2023-05-16T13:23:37;7.57;;;5.47;;
11228;SDS011;5671;47.936;8.716;2023-05-16T13:26:03;4.87;;;4.47;;
11228;SDS011;5671;47.936;8.716;2023-05-16T13:28:30;6.27;;;5.67;;
11228;SDS011;5671;47.936;8.716;2023-05-16T13:30:57;5.97;;;5.47;;
11228;SDS011;5671;47.936;8.716;2023-05-16T13:33:24;5.43;;;4.93;;
11228;SDS011;5671;47.936;8.716;2023-05-16T13:35:52;5.73;;;5.17;;
11228;SDS011;5671;47.936;8.716;2023-05-16T13:38:19;5.77;;;5.17;;
11228;SDS011;5671;47.936;8.716;2023-05-16T13:40:46;5.27;;;4.77;;
11228;SDS011;5671;47.936;8.716;2023-05-16T13:43:13;5.17;;;4.67;;
11228;SDS011;5671;47.936;8.716;2023-05-16T13:45:40;5.13;;;4.67;;
11228;SDS011;5671;47.936;8.716;2023-05-16T13:48:08;8.67;;;4.43;;
11228;SDS011;5671;47.936;8.716;2023-05-16T13:50:35;7.60;;;4.13;;
11228;SDS011;5671;47.936;8.716;2023-05-16T13:53:04;4.20;;;3.80;;
11228;SDS011;5671;47.936;8.716;2023-05-16T13:55:32;4.43;;;4.00;;
11228;SDS011;5671;47.936;8.716;2023-05-16T13:57:59;5.57;;;4.20;;
11228;SDS011;5671;47.936;8.716;2023-05-16T14:00:26;4.20;;;3.80;;
11228;SDS011;5671;47.936;8.716;2023-05-16T14:02:53;3.60;;;3.30;;
11228;SDS011;5671;47.936;8.716;2023-05-16T14:05:20;3.50;;;3.20;;
11228;SDS011;5671;47.936;8.716;2023-05-16T14:07:47;3.30;;;3.00;;
11228;SDS011;5671;47.936;8.716;2023-05-16T14:10:15;3.63;;;2.83;;
11228;SDS011;5671;47.936;8.716;2023-05-16T14:12:42;3.20;;;2.90;;
11228;SDS011;5671;47.936;8.716;2023-05-16T14:15:09;4.03;;;3.17;;
11228;SDS011;5671;47.936;8.716;2023-05-16T14:17:36;3.33;;;3.03;;
11228;SDS011;5671;47.936;8.716;2023-05-16T14:20:03;2.83;;;2.63;;
11228;SDS011;5671;47.936;8.716;2023-05-16T14:22:34;6.07;;;3.27;;
11228;SDS011;5671;47.936;8.716;2023-05-16T14:25:00;3.53;;;3.23;;
11228;SDS011;5671;47.936;8.716;2023-05-16T14:27:29;3.87;;;3.50;;
11228;SDS011;5671;47.936;8.716;2023-05-16T14:29:55;3.40;;;3.10;;
11228;SDS011;5671;47.936;8.716;2023-05-16T14:32:23;4.30;;;2.90;;
11228;SDS011;5671;47.936;8.716;2023-05-16T14:34:49;3.63;;;3.33;;
11228;SDS011;5671;47.936;8.716;2023-05-16T14:37:16;4.83;;;3.20;;
11228;SDS011;5671;47.936;8.716;2023-05-16T14:39:45;3.40;;;3.10;;
11228;SDS011;5671;47.936;8.716;2023-05-16T14:42:14;4.60;;;3.30;;
11228;SDS011;5671;47.936;8.716;2023-05-16T14:44:43;3.27;;;3.07;;
11228;SDS011;5671;47.936;8.716;2023-05-16T14:47:10;4.57;;;3.30;;
11228;SDS011;5671;47.936;8.716;2023-05-16T14:49:37;3.20;;;3.00;;
11228;SDS011;5671;47.936;8.716;2023-05-16T14:52:05;3.63;;;3.13;;
11228;SDS011;5671;47.936;8.716;2023-05-16T14:54:32;4.53;;;3.00;;
11228;SDS011;5671;47.936;8.716;2023-05-16T14:56:59;6.40;;;2.70;;
11228;SDS011;5671;47.936;8.716;2023-05-16T14:59:28;2.60;;;2.40;;
11228;SDS011;5671;47.936;8.716;2023-05-16T15:01:56;2.90;;;2.60;;